Cameron Park, New South Wales

1:53 PM AEST on September 04, 2015 (GMT +1000)
INEWSOUT101 | | Change Station
CLOSE
Current Station
Personal Weather Station
Location: Edgeworth, NEW SOUTH WALES
Elevation: 95 ft
Nearby Weather Stations

Elev 95 ft 32.92 °S, 151.62 °E | Updated 6 seconds ago

Overcast
Overcast
61.5 °F
Feels Like 61.5 °F
N
6.9
Wind Variable Wind from SSE
Gusts 6.9 mph

Today
High -- | Low -- °F
--% Chance of Precip.
Yesterday
High -- | Low -- °F
Precip. -- in
6:08 AM 5:37 PM
Waning Gibbous, 64% visible
Pressure 30.12 in
Visibility 5.6 miles
Clouds Scattered Clouds 1000 ft
Scattered Clouds 2500 ft
Mostly Cloudy 3500 ft
Dew Point 55 °F
Humidity 80%
Rainfall 0.10 in
Snow Depth Not available.
UV 3 out of 12
Pollen Not available.
Air Quality Not available.
Flu Activity Not available.
METAR YWLM 040330Z 21013KT 9000 -SHRA SCT010 SCT025 BKN035 15/14 Q1020 RMK USE TAF FOR ARRIVALS AFTER 0600Z
Pressure 30.12 in
Visibility 5.6 miles
Clouds Scattered Clouds 1000 ft
Scattered Clouds 2500 ft
Mostly Cloudy 3500 ft
Dew Point 55 °F
Humidity 80%
Rainfall 0.10 in
Snow Depth Not available.
UV 3 out of 12
Pollen Not available.
Air Quality Not available.
Flu Activity Not available.
METAR YWLM 040330Z 21013KT 9000 -SHRA SCT010 SCT025 BKN035 15/14 Q1020 RMK USE TAF FOR ARRIVALS AFTER 0600Z

10-Day Weather Forecast

×

Almanac

Astronomy

Sep. 04, 2015 Rise Set
Actual Time
Civil Twilight
Nautical Twilight
Astronomical Twilight
Moon
Length of Visible Light
Length of Day
Tomorrow will be .
, % of the Moon is Illuminated

Today's Extremes

Country Highs Country Lows

Community

WunderPhotos

Upload Photos

1,852,118 photos uploaded!

WunderBlogs® & News

Nearby

Air Quality

  Air Quality AQ Index Pollutant
Not available.

Snow Depth

Station Depth Elevation

Earthquake Activity

City Distance Mag. Time & Date
Minimum magnitude displayed is 2.5.

Coastal Water Temperatures

Place Temperature

Stations

Nearby Weather Stations

Station Location Temp. Windchill Dew Point Humidity Wind Precip. Elev Updated Type